createdAt,value
2019-01-04T00:00:49.754Z,20.66
2019-01-04T00:05:53.536Z,20.67
2019-01-04T00:10:57.325Z,20.67
2019-01-04T00:16:01.096Z,20.68
2019-01-04T00:21:04.957Z,20.68
2019-01-04T00:26:08.731Z,20.88
2019-01-04T00:31:12.503Z,20.97
2019-01-04T00:36:16.281Z,20.97
2019-01-04T00:41:20.063Z,20.97
2019-01-04T00:46:23.850Z,20.97
2019-01-04T00:51:28.944Z,21.00
2019-01-04T00:56:57.369Z,21.00
2019-01-04T01:02:47.835Z,21.00
2019-01-04T01:08:28.786Z,20.71
2019-01-04T01:13:48.687Z,20.71
2019-01-04T01:19:32.382Z,20.70
2019-01-04T01:25:17.646Z,20.70
2019-01-04T01:30:59.022Z,20.76
2019-01-04T01:36:31.477Z,20.91
2019-01-04T01:42:15.623Z,20.98
2019-01-04T01:47:28.905Z,21.07
2019-01-04T01:52:36.568Z,21.08
2019-01-04T01:57:40.337Z,21.01
2019-01-04T02:02:44.120Z,21.03
2019-01-04T02:07:47.893Z,20.94
2019-01-04T02:12:51.668Z,20.94
2019-01-04T02:17:55.443Z,20.79
2019-01-04T02:22:59.225Z,20.79
2019-01-04T02:28:03.090Z,20.69
2019-01-04T02:33:06.852Z,20.64
2019-01-04T02:38:10.631Z,20.76
2019-01-04T02:43:14.399Z,20.76
2019-01-04T02:48:18.195Z,20.90
2019-01-04T02:53:21.973Z,20.96
2019-01-04T02:58:25.749Z,20.93
2019-01-04T03:03:29.501Z,20.93
2019-01-04T03:08:33.355Z,20.86
2019-01-04T03:13:37.142Z,20.86
2019-01-04T03:18:40.903Z,20.77
2019-01-04T03:23:44.665Z,20.77
2019-01-04T03:28:48.429Z,20.70
2019-01-04T03:33:52.284Z,20.66
2019-01-04T03:38:56.111Z,20.66
2019-01-04T03:43:59.893Z,20.74
2019-01-04T03:49:03.650Z,20.74
2019-01-04T03:54:07.434Z,20.86
2019-01-04T03:59:11.183Z,21.01
2019-01-04T04:04:14.942Z,21.01
2019-01-04T04:09:18.703Z,21.01
2019-01-04T04:14:22.470Z,20.86
2019-01-04T04:19:26.287Z,20.86
2019-01-04T04:24:30.046Z,20.80
2019-01-04T04:29:33.839Z,20.73
2019-01-04T04:34:37.620Z,20.59
2019-01-04T04:39:41.378Z,20.59
2019-01-04T04:44:45.133Z,20.48
2019-01-04T04:49:48.906Z,20.49
2019-01-04T04:54:52.704Z,20.49
2019-01-04T04:59:56.493Z,20.58
2019-01-04T05:05:00.303Z,20.58
2019-01-04T05:10:04.444Z,20.68
2019-01-04T05:15:08.214Z,20.76
2019-01-04T05:20:11.980Z,20.74
2019-01-04T05:25:15.746Z,20.65
2019-01-04T05:30:19.535Z,20.58
2019-01-04T05:35:23.314Z,20.50
2019-01-04T05:40:27.108Z,20.50
2019-01-04T05:45:30.960Z,20.42
2019-01-04T05:50:34.736Z,20.42
2019-01-04T05:55:38.527Z,20.45
2019-01-04T06:00:42.353Z,20.61
2019-01-04T06:05:46.191Z,20.69
2019-01-04T06:10:49.972Z,20.66
2019-01-04T06:15:53.756Z,20.66
2019-01-04T06:20:57.577Z,20.49
2019-01-04T06:26:01.373Z,20.48
2019-01-04T06:31:05.221Z,20.37
2019-01-04T06:36:08.986Z,20.34
2019-01-04T06:41:12.839Z,20.34
2019-01-04T06:46:16.616Z,20.41
2019-01-04T06:51:20.403Z,20.47
2019-01-04T06:56:24.170Z,20.55
2019-01-04T07:01:27.975Z,20.55
2019-01-04T07:06:31.746Z,20.61
2019-01-04T07:11:35.515Z,20.53
2019-01-04T07:16:39.301Z,20.44
2019-01-04T07:21:43.086Z,20.42
2019-01-04T07:26:46.837Z,20.32
2019-01-04T07:31:50.648Z,20.27
2019-01-04T07:36:54.466Z,20.25
2019-01-04T07:41:58.246Z,20.32
2019-01-04T07:47:02.007Z,20.32
2019-01-04T07:52:05.781Z,20.41
2019-01-04T07:57:09.546Z,20.42
2019-01-04T08:02:39.077Z,20.51
2019-01-04T08:07:42.948Z,20.43
2019-01-04T08:12:46.707Z,20.43
2019-01-04T08:17:50.486Z,20.29
2019-01-04T08:22:54.281Z,20.29
2019-01-04T08:27:58.122Z,13.34
2019-01-04T08:33:01.992Z,13.34
2019-01-04T08:38:05.782Z,11.90
2019-01-04T08:43:09.588Z,10.30
2019-01-04T08:48:13.374Z,10.30
2019-01-04T08:53:17.167Z,10.49
2019-01-04T08:58:21.028Z,17.51
2019-01-04T09:03:24.792Z,17.51
2019-01-04T09:08:28.593Z,18.66
2019-01-04T09:13:32.356Z,18.99
2019-01-04T09:18:36.131Z,19.44
2019-01-04T09:23:39.910Z,19.73
2019-01-04T09:28:43.724Z,19.92
2019-01-04T09:33:47.616Z,20.20
2019-01-04T09:38:52.228Z,20.44
2019-01-04T09:43:57.289Z,20.46
2019-01-04T09:49:01.065Z,20.31
2019-01-04T09:54:04.826Z,20.21
2019-01-04T09:59:08.638Z,20.14
2019-01-04T10:04:12.420Z,20.14
2019-01-04T10:09:16.213Z,20.28
2019-01-04T10:14:20.568Z,20.28
2019-01-04T10:19:24.374Z,20.33
2019-01-04T10:24:28.149Z,20.25
2019-01-04T10:29:31.925Z,20.15
2019-01-04T10:34:35.721Z,20.13
2019-01-04T10:39:39.505Z,20.09
2019-01-04T10:44:43.284Z,20.09
2019-01-04T10:49:47.067Z,19.95
2019-01-04T10:54:50.856Z,19.95
2019-01-04T10:59:54.647Z,20.09
2019-01-04T11:04:58.441Z,20.24
2019-01-04T11:10:02.267Z,20.24
2019-01-04T11:15:06.357Z,20.16
2019-01-04T11:20:42.720Z,20.39
2019-01-04T11:26:06.696Z,20.39
2019-01-04T11:31:17.889Z,20.51
2019-01-04T11:36:46.408Z,20.41
2019-01-04T11:42:07.427Z,20.26
2019-01-04T11:47:36.318Z,20.29
2019-01-04T11:52:44.656Z,20.29
2019-01-04T11:57:48.449Z,20.52
2019-01-04T12:02:52.283Z,20.63
2019-01-04T12:07:56.074Z,20.67
2019-01-04T12:12:59.940Z,20.61
2019-01-04T12:18:05.825Z,20.55
2019-01-04T12:23:11.228Z,20.55
2019-01-04T12:28:15.199Z,20.38
2019-01-04T12:33:18.980Z,20.38
2019-01-04T12:38:22.791Z,20.24
2019-01-04T12:43:26.616Z,20.25
2019-01-04T12:48:30.387Z,20.47
2019-01-04T12:53:34.174Z,20.71
2019-01-04T12:58:37.957Z,20.62
2019-01-04T13:03:41.776Z,20.55
2019-01-04T13:08:45.563Z,20.49
2019-01-04T13:13:49.559Z,20.35
2019-01-04T13:18:53.439Z,20.29
2019-01-04T13:23:57.262Z,20.26
2019-01-04T13:29:01.073Z,20.21
2019-01-04T13:34:04.915Z,20.23
2019-01-04T13:39:12.250Z,20.27
2019-01-04T13:44:16.149Z,20.45
2019-01-04T13:49:19.956Z,20.54
2019-01-04T13:54:23.747Z,20.57
2019-01-04T13:59:27.662Z,20.52
2019-01-04T14:04:31.495Z,20.52
2019-01-04T14:09:35.312Z,20.41
2019-01-04T14:14:39.112Z,20.41
2019-01-04T14:19:43.166Z,20.34
2019-01-04T14:24:47.000Z,20.34
2019-01-04T14:29:50.811Z,20.29
2019-01-04T14:34:54.645Z,20.36
2019-01-04T14:39:58.469Z,20.48
2019-01-04T14:45:02.410Z,20.54
2019-01-04T14:50:08.280Z,20.54
2019-01-04T14:55:12.172Z,20.63
2019-01-04T15:00:16.009Z,20.58
2019-01-04T15:05:22.845Z,20.62
2019-01-04T15:10:26.650Z,20.62
2019-01-04T15:15:30.432Z,20.63
2019-01-04T15:20:34.234Z,20.57
2019-01-04T15:25:38.013Z,20.57
2019-01-04T15:30:41.822Z,20.55
2019-01-04T15:35:45.610Z,20.55
2019-01-04T15:40:49.412Z,20.61
2019-01-04T15:45:53.208Z,20.61
2019-01-04T15:50:56.996Z,20.67
2019-01-04T15:56:00.784Z,20.71
2019-01-04T16:01:04.573Z,20.63
2019-01-04T16:06:08.354Z,20.63
2019-01-04T16:11:12.152Z,20.64
2019-01-04T16:16:15.933Z,20.64
2019-01-04T16:21:19.740Z,20.60
2019-01-04T16:26:23.556Z,20.60
2019-01-04T16:31:27.338Z,20.57
2019-01-04T16:36:31.154Z,20.57
2019-01-04T16:41:34.944Z,20.61
2019-01-04T16:46:38.755Z,20.72
2019-01-04T16:51:42.542Z,20.72
2019-01-04T16:56:46.325Z,20.72
2019-01-04T17:01:50.115Z,20.72
2019-01-04T17:06:53.885Z,20.78
2019-01-04T17:11:57.684Z,20.78
2019-01-04T17:17:01.499Z,20.76
2019-01-04T17:22:05.303Z,20.76
2019-01-04T17:27:09.083Z,20.72
2019-01-04T17:32:12.878Z,20.75
2019-01-04T17:37:16.675Z,20.71
2019-01-04T17:42:20.462Z,20.71
2019-01-04T17:47:24.252Z,20.71
2019-01-04T17:52:28.029Z,20.71
2019-01-04T17:57:31.828Z,20.72
2019-01-04T18:02:35.619Z,20.74
2019-01-04T18:07:39.437Z,20.74
2019-01-04T18:12:43.220Z,20.76
2019-01-04T18:17:47.032Z,20.74
2019-01-04T18:22:50.830Z,20.66
2019-01-04T18:27:54.600Z,20.66
2019-01-04T18:33:00.494Z,20.73
2019-01-04T18:38:04.288Z,20.77
2019-01-04T18:43:08.126Z,20.79
2019-01-04T18:48:11.933Z,20.79
2019-01-04T18:53:15.723Z,20.79
2019-01-04T18:58:19.510Z,20.87
2019-01-04T19:03:23.302Z,20.85
2019-01-04T19:08:27.116Z,20.86
2019-01-04T19:13:32.901Z,20.85
2019-01-04T19:18:36.719Z,20.85
2019-01-04T19:23:40.497Z,20.81
2019-01-04T19:28:44.278Z,20.88
2019-01-04T19:33:48.083Z,20.88
2019-01-04T19:38:51.873Z,20.83
2019-01-04T19:43:56.811Z,20.86
2019-01-04T19:49:00.593Z,20.86
2019-01-04T19:54:04.417Z,20.86
2019-01-04T19:59:08.197Z,20.90
2019-01-04T20:04:11.985Z,20.88
2019-01-04T20:10:24.842Z,20.88
2019-01-04T20:15:59.614Z,20.89
2019-01-04T20:21:25.680Z,20.88
2019-01-04T20:26:46.956Z,20.88
2019-01-04T20:32:09.802Z,20.81
2019-01-04T20:37:31.633Z,20.95
2019-01-04T20:42:50.498Z,20.92
2019-01-04T20:48:13.281Z,20.90
2019-01-04T20:53:34.316Z,20.90
2019-01-04T20:58:53.671Z,20.86
2019-01-04T21:04:28.913Z,20.91
2019-01-04T21:10:09.809Z,20.91
2019-01-04T21:15:31.332Z,20.91
2019-01-04T21:21:00.220Z,20.93
2019-01-04T21:26:21.909Z,20.90
2019-01-04T21:31:53.298Z,20.92
2019-01-04T21:37:31.181Z,20.92
2019-01-04T21:43:12.228Z,20.89
2019-01-04T21:48:36.523Z,20.83
2019-01-04T21:53:57.953Z,20.83
2019-01-04T21:59:35.351Z,20.83
2019-01-04T22:04:58.088Z,20.91
2019-01-04T22:10:19.735Z,20.87
2019-01-04T22:15:57.920Z,20.91
2019-01-04T22:21:26.736Z,20.91
2019-01-04T22:26:48.403Z,20.90
2019-01-04T22:32:17.443Z,20.81
2019-01-04T22:37:39.109Z,20.91
2019-01-04T22:43:01.857Z,20.91
2019-01-04T22:48:23.650Z,20.87
2019-01-04T22:53:54.594Z,20.92
2019-01-04T22:59:17.457Z,20.96
2019-01-04T23:04:43.094Z,20.96
2019-01-04T23:10:02.878Z,20.92
2019-01-04T23:15:24.423Z,20.91
2019-01-04T23:20:47.203Z,20.91
2019-01-04T23:26:08.659Z,20.88
2019-01-04T23:31:31.415Z,20.90
2019-01-04T23:36:53.942Z,20.87
2019-01-04T23:42:15.479Z,20.88
2019-01-04T23:47:50.938Z,20.90
2019-01-04T23:53:13.066Z,20.86
2019-01-04T23:58:37.596Z,20.86
